No particular awareness of the weather is required.    There are no Weather-warnings


Meteo18 Weather Cam more information Meteo18 Weather Cam


Thunder radar more information blitzortung!


Rain radar more information rain snow radar


Visit our other weather sites:

Template documentation
and downloads

And another site



Weather Underground History page Text

Daily Summary for June 8, 2017 Units:  English    Metric   Both
« Previous Day
Next Day »
Daily Weekly Monthly Yearly Custom
  High: Low: Average:
Temperature: TemperatureC °F 8.7 °F 18 °F
Dew Point: DewpointC °F 7.8 °F 11.8 °F
Humidity: Humidity % 42 % 70 %
Wind Speed: WindSpeedKMH mph 0.0 mph 2.1 mph
Wind Gust: WindSpeedGustKMH mph - -
Wind:- - SSE
Pressure: PressurehPa in 1011.7 in -
Precipitation: 0.0 in    
Historical Graphs
 
 
Tabular Data for June 8, 2017
Time Temperature Dew Point Pressure Wind Wind Speed Wind Gust Humidity Rainfall Rate (Hourly)
TemperatureC °F DewpointC °F PressurehPa in Calm     Humidity % HourlyPrecipMM in
00:02 11.6 °F 9.5 °F 1021.6 in Calm     87 % 0.0 in
00:07 11.4 °F 9.3 °F 1021.6 in Calm     87 % 0.0 in
00:12 11.3 °F 9.2 °F 1021.6 in Calm     87 % 0.0 in
00:17 11.2 °F 9.1 °F 1021.6 in Calm     87 % 0.0 in
00:22 11.2 °F 9.3 °F 1021.6 in Calm     88 % 0.0 in
00:27 11.2 °F 9.3 °F 1021.2 in Calm     88 % 0.0 in
00:32 11.2 °F 9.1 °F 1021.6 in Calm     87 % 0.0 in
00:42 11.1 °F 9.0 °F 1021.6 in Calm     87 % 0.0 in
00:52 11.2 °F 9.1 °F 1021.2 in Calm     87 % 0.0 in
00:57 11.1 °F 9.0 °F 1021.2 in Calm     87 % 0.0 in
01:02 11.1 °F 9.2 °F 1021.2 in Calm     88 % 0.0 in
01:07 11.1 °F 9.2 °F 1021.2 in Calm     88 % 0.0 in
01:12 11.0 °F 9.1 °F 1021.2 in Calm     88 % 0.0 in
01:17 10.9 °F 9.0 °F 1021.2 in Calm     88 % 0.0 in
01:22 10.9 °F 9.2 °F 1021.2 in Calm     89 % 0.0 in
01:27 10.9 °F 9.2 °F 1020.9 in Calm     89 % 0.0 in
01:32 10.9 °F 9.2 °F 1020.9 in Calm     89 % 0.0 in
01:37 10.9 °F 9.2 °F 1020.9 in Calm     89 % 0.0 in
01:42 10.9 °F 9.2 °F 1020.9 in Calm     89 % 0.0 in
01:47 10.8 °F 9.1 °F 1020.9 in Calm     89 % 0.0 in
01:52 10.7 °F 9.0 °F 1020.9 in Calm     89 % 0.0 in
01:57 10.6 °F 8.9 °F 1020.9 in Calm     89 % 0.0 in
02:02 10.6 °F 8.9 °F 1020.9 in Calm     89 % 0.0 in
02:07 10.4 °F 8.8 °F 1020.9 in Calm     90 % 0.0 in
02:12 10.4 °F 8.8 °F 1020.9 in Calm     90 % 0.0 in
02:17 10.3 °F 8.7 °F 1020.9 in Calm     90 % 0.0 in
02:22 10.3 °F 8.7 °F 1020.9 in Calm     90 % 0.0 in
02:27 10.2 °F 8.8 °F 1020.9 in Calm     91 % 0.0 in
02:32 10.1 °F 8.7 °F 1020.5 in Calm     91 % 0.0 in
02:37 9.9 °F 8.5 °F 1020.5 in Calm     91 % 0.0 in
02:42 9.9 °F 8.7 °F 1020.5 in Calm     92 % 0.0 in
02:47 9.9 °F 8.7 °F 1020.5 in Calm     92 % 0.0 in
02:52 9.9 °F 8.8 °F 1020.5 in Calm     93 % 0.0 in
02:57 10.1 °F 8.9 °F 1020.5 in Calm     92 % 0.0 in
03:02 10.1 °F 8.9 °F 1020.5 in Calm     92 % 0.0 in
03:07 10.2 °F 9.0 °F 1020.5 in Calm     92 % 0.0 in
03:12 10.2 °F 9.0 °F 1020.5 in Calm     92 % 0.0 in
03:17 10.0 °F 8.8 °F 1020.5 in Calm     92 % 0.0 in
03:22 9.9 °F 8.7 °F 1020.5 in Calm     92 % 0.0 in
03:27 9.8 °F 8.6 °F 1020.2 in Calm     92 % 0.0 in
03:32 9.7 °F 8.6 °F 1020.2 in Calm     93 % 0.0 in
03:37 9.8 °F 8.7 °F 1020.2 in Calm     93 % 0.0 in
03:42 9.8 °F 8.6 °F 1020.2 in Calm     92 % 0.0 in
03:47 9.7 °F 8.5 °F 1020.2 in Calm     92 % 0.0 in
03:52 9.6 °F 8.5 °F 1020.2 in Calm     93 % 0.0 in
03:57 9.7 °F 8.6 °F 1020.2 in Calm     93 % 0.0 in
04:02 9.6 °F 8.5 °F 1020.2 in Calm     93 % 0.0 in
04:07 9.4 °F 8.3 °F 1020.2 in Calm     93 % 0.0 in
04:12 9.3 °F 8.2 °F 1020.2 in Calm     93 % 0.0 in
04:17 9.2 °F 8.1 °F 1020.2 in Calm     93 % 0.0 in
04:22 9.1 °F 8.0 °F 1020.2 in Calm     93 % 0.0 in
04:27 9.1 °F 8.0 °F 1020.2 in Calm     93 % 0.0 in
04:32 9.0 °F 7.9 °F 1020.2 in Calm     93 % 0.0 in
04:37 8.9 °F 7.8 °F 1019.9 in Calm     93 % 0.0 in
04:42 8.8 °F 7.9 °F 1019.9 in Calm     94 % 0.0 in
04:47 8.9 °F 8.0 °F 1019.9 in Calm     94 % 0.0 in
04:52 8.9 °F 8.0 °F 1019.9 in Calm     94 % 0.0 in
05:02 8.9 °F 8.0 °F 1019.9 in Calm     94 % 0.0 in
05:07 8.8 °F 7.9 °F 1019.9 in Calm     94 % 0.0 in
05:12 8.8 °F 7.9 °F 1019.9 in Calm     94 % 0.0 in
05:17 8.7 °F 7.8 °F 1019.9 in Calm     94 % 0.0 in
05:22 8.7 °F 7.9 °F 1019.9 in Calm     95 % 0.0 in
05:32 8.7 °F 7.9 °F 1019.9 in Calm     95 % 0.0 in
05:37 8.7 °F 7.9 °F 1019.9 in Calm     95 % 0.0 in
05:42 8.7 °F 7.9 °F 1019.9 in Calm     95 % 0.0 in
05:47 8.8 °F 8.0 °F 1019.9 in Calm     95 % 0.0 in
05:52 8.8 °F 8.0 °F 1019.9 in Calm     95 % 0.0 in
06:02 8.8 °F 8.0 °F 1019.9 in Calm     95 % 0.0 in
06:12 8.8 °F 8.0 °F 1019.9 in Calm     95 % 0.0 in
06:17 8.8 °F 8.0 °F 1019.9 in Calm     95 % 0.0 in
06:22 8.8 °F 8.0 °F 1019.9 in Calm     95 % 0.0 in
06:27 8.8 °F 8.0 °F 1019.9 in Calm     95 % 0.0 in
06:32 8.8 °F 8.0 °F 1019.9 in Calm     95 % 0.0 in
06:37 9.0 °F 8.2 °F 1019.5 in Calm     95 % 0.0 in
06:42 9.2 °F 8.4 °F 1019.5 in Calm     95 % 0.0 in
06:47 9.4 °F 8.8 °F 1019.5 in Calm     96 % 0.0 in
06:52 9.3 °F 8.5 °F 1019.9 in Calm     95 % 0.0 in
06:57 9.2 °F 8.4 °F 1019.9 in Calm     95 % 0.0 in
07:02 9.3 °F 8.5 °F 1019.9 in Calm     95 % 0.0 in
07:07 9.6 °F 8.8 °F 1019.5 in Calm     95 % 0.0 in
07:12 10.2 °F 9.6 °F 1019.9 in Calm     96 % 0.0 in
07:17 10.6 °F 10.0 °F 1019.9 in Calm     96 % 0.0 in
07:22 10.9 °F 10.1 °F 1019.9 in Calm     95 % 0.0 in
07:32 11.2 °F 10.3 °F 1019.5 in Calm     94 % 0.0 in
07:37 11.3 °F 10.4 °F 1019.5 in Calm     94 % 0.0 in
07:42 11.6 °F 10.5 °F 1019.5 in Calm     93 % 0.0 in
07:47 11.8 °F 10.7 °F 1019.5 in Calm     93 % 0.0 in
07:52 11.9 °F 10.5 °F 1019.5 in Calm     91 % 0.0 in
08:02 12.6 °F 10.8 °F 1019.2 in Calm     89 % 0.0 in
08:07 12.8 °F 10.9 °F 1019.2 in Calm     88 % 0.0 in
08:12 12.9 °F 10.8 °F 1019.2 in Calm     87 % 0.0 in
08:17 13.2 °F 11.1 °F 1019.2 in Calm   1.6 mph 87 % 0.0 in
08:22 13.4 °F 11.1 °F 1019.2 in Calm   1.6 mph 86 % 0.0 in
08:32 13.8 °F 11.1 °F 1019.5 in Calm   3.2 mph 84 % 0.0 in
08:37 14.2 °F 11.5 °F 1019.2 in Calm   3.2 mph 84 % 0.0 in
08:42 14.4 °F 11.5 °F 1019.5 in Calm   3.2 mph 83 % 0.0 in
08:52 14.9 °F 11.9 °F 1019.5 in Calm   3.2 mph 82 % 0.0 in
08:57 14.9 °F 11.7 °F 1019.5 in Calm   9.7 mph 81 % 0.0 in
09:02 15.2 °F 11.8 °F 1019.5 in SW 1.6 mph 9.7 mph 80 % 0.0 in
09:12 15.8 °F 12.0 °F 1019.2 in Calm   6.4 mph 78 % 0.0 in
09:17 16.1 °F 12.3 °F 1019.2 in Calm   6.4 mph 78 % 0.0 in
09:22 16.6 °F 12.4 °F 1019.2 in SSE 1.6 mph 6.4 mph 76 % 0.0 in
09:27 16.8 °F 11.9 °F 1019.2 in SSE 1.6 mph 6.4 mph 73 % 0.0 in
09:32 17.1 °F 12.4 °F 1019.2 in SE 1.6 mph 6.4 mph 74 % 0.0 in
09:37 17.2 °F 11.9 °F 1019.2 in SW 1.6 mph 9.7 mph 71 % 0.0 in
09:42 17.4 °F 12.3 °F 1019.2 in SSW 4.8 mph 9.7 mph 72 % 0.0 in
09:47 17.6 °F 12.1 °F 1019.2 in SSE 3.2 mph 9.7 mph 70 % 0.0 in
09:52 18.1 °F 12.8 °F 1019.2 in Calm   9.7 mph 71 % 0.0 in
09:57 18.3 °F 12.3 °F 1019.2 in SW 1.6 mph 8.0 mph 68 % 0.0 in
10:02 18.2 °F 12.2 °F 1019.2 in SE 4.8 mph 11.3 mph 68 % 0.0 in
10:12 18.4 °F 11.9 °F 1019.2 in SW 11.3 mph 11.3 mph 66 % 0.0 in
10:17 18.5 °F 12.0 °F 1019.2 in SW 3.2 mph 11.3 mph 66 % 0.0 in
10:22 18.8 °F 12.3 °F 1018.8 in SW 1.6 mph 12.9 mph 66 % 0.0 in
10:32 19.3 °F 11.3 °F 1018.8 in SSE 3.2 mph 16.1 mph 60 % 0.0 in
10:42 19.4 °F 11.4 °F 1018.8 in SE 6.4 mph 16.1 mph 60 % 0.0 in
10:52 19.8 °F 11.8 °F 1018.5 in East 3.2 mph 14.5 mph 60 % 0.0 in
11:02 20.2 °F 11.7 °F 1018.5 in ESE 11.3 mph 17.7 mph 58 % 0.0 in
11:12 20.6 °F 12.0 °F 1018.5 in SW 8.0 mph 17.7 mph 58 % 0.0 in
11:17 20.8 °F 11.7 °F 1018.5 in SW 3.2 mph 16.1 mph 56 % 0.0 in
11:22 20.7 °F 11.1 °F 1018.5 in SW 6.4 mph 16.1 mph 54 % 0.0 in
11:27 20.9 °F 12.8 °F 1018.2 in South 1.6 mph 16.1 mph 60 % 0.0 in
11:32 20.9 °F 12.3 °F 1018.2 in East 8.0 mph 19.3 mph 58 % 0.0 in
11:37 20.9 °F 12.8 °F 1018.2 in SSW 6.4 mph 19.3 mph 60 % 0.0 in
11:47 21.6 °F 13.5 °F 1018.2 in East 9.7 mph 16.1 mph 60 % 0.0 in
11:52 21.3 °F 11.3 °F 1017.8 in SSE 3.2 mph 16.1 mph 53 % 0.0 in
11:57 21.5 °F 11.5 °F 1017.8 in SSW 4.8 mph 16.1 mph 53 % 0.0 in
12:02 21.9 °F 12.7 °F 1017.8 in ESE 11.3 mph 16.1 mph 56 % 0.0 in
12:07 21.9 °F 12.5 °F 1017.8 in SSW 4.8 mph 16.1 mph 55 % 0.0 in
12:12 21.9 °F 11.6 °F 1017.8 in SSW 9.7 mph 16.1 mph 52 % 0.0 in
12:17 21.9 °F 12.2 °F 1017.8 in ESE 9.7 mph 17.7 mph 54 % 0.0 in
12:22 21.9 °F 11.9 °F 1017.8 in SSW 3.2 mph 17.7 mph 53 % 0.0 in
12:27 22.2 °F 12.4 °F 1017.8 in SE 4.8 mph 17.7 mph 54 % 0.0 in
12:42 22.4 °F 12.6 °F 1017.8 in SW 6.4 mph 17.7 mph 54 % 0.0 in
12:47 22.6 °F 11.9 °F 1017.8 in SE 3.2 mph 17.7 mph 51 % 0.0 in
12:52 22.7 °F 11.7 °F 1017.8 in SE 3.2 mph 17.7 mph 50 % 0.0 in
12:57 23.0 °F 12.3 °F 1017.8 in WNW 3.2 mph 17.7 mph 51 % 0.0 in
13:02 23.0 °F 11.7 °F 1017.8 in SSE 4.8 mph 16.1 mph 49 % 0.0 in
13:07 23.1 °F 12.1 °F 1017.8 in ESE 3.2 mph 16.1 mph 50 % 0.0 in
13:12 22.9 °F 11.6 °F 1017.8 in ESE 6.4 mph 14.5 mph 49 % 0.0 in
13:17 23.1 °F 12.1 °F 1017.8 in SE 3.2 mph 14.5 mph 50 % 0.0 in
13:22 23.3 °F 12.0 °F 1017.5 in SE 4.8 mph 17.7 mph 49 % 0.0 in
13:27 23.3 °F 11.7 °F 1017.5 in ENE 4.8 mph 17.7 mph 48 % 0.0 in
13:32 23.4 °F 12.4 °F 1017.5 in SSE 4.8 mph 17.7 mph 50 % 0.0 in
13:37 23.7 °F 12.7 °F 1017.5 in East 4.8 mph 17.7 mph 50 % 0.0 in
13:42 23.8 °F 11.8 °F 1017.5 in SW 6.4 mph 19.3 mph 47 % 0.0 in
13:47 23.5 °F 12.2 °F 1017.5 in South 11.3 mph 19.3 mph 49 % 0.0 in
13:52 23.6 °F 12.3 °F 1017.5 in South 9.7 mph 17.7 mph 49 % 0.0 in
14:02 24.0 °F 12.0 °F 1017.2 in SSW 11.3 mph 16.1 mph 47 % 0.0 in
14:07 24.0 °F 12.9 °F 1017.2 in South 3.2 mph 16.1 mph 50 % 0.0 in
14:12 24.4 °F 12.0 °F 1017.2 in SW 4.8 mph 14.5 mph 46 % 0.0 in
14:17 24.5 °F 12.8 °F 1017.2 in SSW 6.4 mph 14.5 mph 48 % 0.0 in
14:22 24.6 °F 12.5 °F 1017.2 in ESE 16.1 mph 16.1 mph 47 % 0.0 in
14:32 24.3 °F 12.6 °F 1017.2 in SSW 1.6 mph 16.1 mph 48 % 0.0 in
14:37 24.8 °F 12.7 °F 1016.8 in SSE 3.2 mph 16.1 mph 47 % 0.0 in
14:42 24.9 °F 12.1 °F 1016.8 in South 6.4 mph 16.1 mph 45 % 0.0 in
14:47 24.9 °F 13.1 °F 1016.8 in South 4.8 mph 16.1 mph 48 % 0.0 in
14:52 25.2 °F 13.1 °F 1016.8 in SSW 8.0 mph 16.1 mph 47 % 0.0 in
14:57 25.2 °F 12.8 °F 1016.8 in SSW 4.8 mph 14.5 mph 46 % 0.0 in
15:02 25.4 °F 13.3 °F 1016.5 in SSW 3.2 mph 12.9 mph 47 % 0.0 in
15:07 25.4 °F 13.3 °F 1016.5 in SSW 8.0 mph 14.5 mph 47 % 0.0 in
15:12 25.5 °F 14.0 °F 1016.5 in East 6.4 mph 16.1 mph 49 % 0.0 in
15:17 25.3 °F 12.8 °F 1016.1 in SE 8.0 mph 16.1 mph 46 % 0.0 in
15:22 25.4 °F 12.9 °F 1016.5 in SW 4.8 mph 16.1 mph 46 % 0.0 in
15:27 25.4 °F 13.6 °F 1016.1 in SW 8.0 mph 16.1 mph 48 % 0.0 in
15:32 25.7 °F 13.5 °F 1016.1 in Calm   16.1 mph 47 % 0.0 in
15:37 25.8 °F 13.0 °F 1016.1 in ENE 1.6 mph 14.5 mph 45 % 0.0 in
15:42 25.8 °F 14.0 °F 1016.1 in Calm   14.5 mph 48 % 0.0 in
15:47 25.8 °F 13.3 °F 1016.1 in SSW 6.4 mph 11.3 mph 46 % 0.0 in
15:52 25.9 °F 13.1 °F 1016.1 in ESE 3.2 mph 11.3 mph 45 % 0.0 in
15:57 26.1 °F 13.9 °F 1016.1 in ESE 6.4 mph 11.3 mph 47 % 0.0 in
16:02 25.9 °F 13.1 °F 1015.8 in SSW 1.6 mph 12.9 mph 45 % 0.0 in
16:12 26.0 °F 13.5 °F 1015.8 in SW 4.8 mph 14.5 mph 46 % 0.0 in
16:17 26.1 °F 12.9 °F 1015.8 in SW 3.2 mph 14.5 mph 44 % 0.0 in
16:22 26.0 °F 13.8 °F 1015.5 in ESE 9.7 mph 12.9 mph 47 % 0.0 in
16:27 26.1 °F 13.6 °F 1015.5 in SW 3.2 mph 14.5 mph 46 % 0.0 in
16:32 26.3 °F 14.4 °F 1015.5 in South 8.0 mph 14.5 mph 48 % 0.0 in
16:37 26.5 °F 13.6 °F 1015.1 in ESE 4.8 mph 12.9 mph 45 % 0.0 in
16:42 26.7 °F 13.8 °F 1015.1 in SE 3.2 mph 12.9 mph 45 % 0.0 in
16:47 26.8 °F 14.2 °F 1015.1 in ESE 6.4 mph 12.9 mph 46 % 0.0 in
16:52 26.9 °F 14.0 °F 1015.1 in SSW 8.0 mph 12.9 mph 45 % 0.0 in
16:57 26.6 °F 13.0 °F 1015.1 in Calm   12.9 mph 43 % 0.0 in
17:02 26.9 °F 13.6 °F 1015.1 in SW 4.8 mph 12.9 mph 44 % 0.0 in
17:12 26.9 °F 12.9 °F 1015.1 in South 4.8 mph 12.9 mph 42 % 0.0 in
17:17 26.8 °F 13.5 °F 1014.8 in ESE 9.7 mph 11.3 mph 44 % 0.0 in
17:22 26.8 °F 13.9 °F 1014.8 in ESE 3.2 mph 11.3 mph 45 % 0.0 in
17:27 26.8 °F 13.9 °F 1014.8 in ESE 8.0 mph 11.3 mph 45 % 0.0 in
17:32 26.9 °F 14.6 °F 1014.8 in SE 4.8 mph 12.9 mph 47 % 0.0 in
17:37 27.3 °F 14.7 °F 1014.4 in South 3.2 mph 12.9 mph 46 % 0.0 in
17:42 27.2 °F 14.2 °F 1014.4 in South 3.2 mph 17.7 mph 45 % 0.0 in
17:47 27.2 °F 14.2 °F 1014.4 in SW 1.6 mph 17.7 mph 45 % 0.0 in
17:52 27.1 °F 13.4 °F 1014.4 in SSW 8.0 mph 17.7 mph 43 % 0.0 in
17:57 27.0 °F 13.4 °F 1014.4 in SE 8.0 mph 14.5 mph 43 % 0.0 in
18:02 27.0 °F 14.1 °F 1014.4 in South 4.8 mph 14.5 mph 45 % 0.0 in
18:07 27.1 °F 13.8 °F 1014.4 in South 4.8 mph 12.9 mph 44 % 0.0 in
18:12 27.1 °F 13.8 °F 1014.4 in ESE 14.5 mph 14.5 mph 44 % 0.0 in
18:17 26.9 °F 14.0 °F 1014.4 in SSW 1.6 mph 17.7 mph 45 % 0.0 in
18:22 26.9 °F 14.3 °F 1014.4 in SSE 1.6 mph 17.7 mph 46 % 0.0 in
18:32 26.6 °F 14.0 °F 1014.1 in South 1.6 mph 11.3 mph 46 % 0.0 in
18:42 27.1 °F 14.8 °F 1013.8 in SE 6.4 mph 11.3 mph 47 % 0.0 in
18:47 26.8 °F 14.9 °F 1013.8 in ESE 4.8 mph 11.3 mph 48 % 0.0 in
18:52 26.7 °F 14.5 °F 1013.8 in South 3.2 mph 11.3 mph 47 % 0.0 in
18:57 26.5 °F 14.3 °F 1013.8 in SW 3.2 mph 11.3 mph 47 % 0.0 in
19:02 26.3 °F 14.7 °F 1013.8 in Calm   8.0 mph 49 % 0.0 in
19:07 26.1 °F 15.2 °F 1013.8 in East 3.2 mph 8.0 mph 51 % 0.0 in
19:12 25.9 °F 15.6 °F 1013.8 in ESE 1.6 mph 8.0 mph 53 % 0.0 in
19:22 25.4 °F 15.4 °F 1013.8 in SSE 4.8 mph 8.0 mph 54 % 0.0 in
19:27 25.3 °F 15.9 °F 1013.8 in Calm   9.7 mph 56 % 0.0 in
19:32 25.2 °F 16.3 °F 1013.8 in ESE 1.6 mph 9.7 mph 58 % 0.0 in
19:37 24.9 °F 15.8 °F 1013.8 in ESE 3.2 mph 9.7 mph 57 % 0.0 in
19:42 24.7 °F 16.1 °F 1013.4 in ESE 1.6 mph 8.0 mph 59 % 0.0 in
19:47 24.4 °F 15.9 °F 1013.4 in Calm   8.0 mph 59 % 0.0 in
19:52 24.2 °F 16.2 °F 1013.4 in ESE 3.2 mph 4.8 mph 61 % 0.0 in
19:57 23.9 °F 16.2 °F 1013.4 in Calm   6.4 mph 62 % 0.0 in
20:02 23.7 °F 16.0 °F 1013.4 in Calm   6.4 mph 62 % 0.0 in
20:07 23.6 °F 16.1 °F 1013.4 in Calm   6.4 mph 63 % 0.0 in
20:17 23.6 °F 15.9 °F 1013.4 in Calm   3.2 mph 62 % 0.0 in
20:22 23.6 °F 15.6 °F 1013.4 in SE 1.6 mph 3.2 mph 61 % 0.0 in
20:32 23.7 °F 16.0 °F 1013.4 in Calm   3.2 mph 62 % 0.0 in
20:37 23.6 °F 15.9 °F 1013.4 in Calm   3.2 mph 62 % 0.0 in
20:42 23.4 °F 16.0 °F 1013.4 in Calm   1.6 mph 63 % 0.0 in
20:47 23.2 °F 16.0 °F 1013.4 in Calm     64 % 0.0 in
20:52 23.1 °F 16.2 °F 1013.1 in Calm     65 % 0.0 in
20:57 23.0 °F 15.6 °F 1013.1 in Calm     63 % 0.0 in
21:02 22.9 °F 16.0 °F 1013.1 in Calm     65 % 0.0 in
21:12 22.6 °F 16.2 °F 1013.1 in Calm     67 % 0.0 in
21:17 22.4 °F 15.7 °F 1013.1 in Calm     66 % 0.0 in
21:22 22.1 °F 15.7 °F 1012.8 in Calm     67 % 0.0 in
21:27 21.8 °F 15.4 °F 1012.8 in Calm     67 % 0.0 in
21:32 21.7 °F 15.5 °F 1012.8 in Calm     68 % 0.0 in
21:37 21.4 °F 15.2 °F 1012.8 in Calm     68 % 0.0 in
21:42 21.3 °F 15.2 °F 1012.8 in Calm     68 % 0.0 in
21:47 21.1 °F 15.0 °F 1012.8 in Calm     68 % 0.0 in
21:52 20.9 °F 15.2 °F 1012.8 in SE 1.6 mph   70 % 0.0 in
21:57 20.4 °F 15.4 °F 1012.8 in Calm   1.6 mph 73 % 0.0 in
22:02 20.1 °F 14.9 °F 1012.8 in Calm   1.6 mph 72 % 0.0 in
22:07 19.9 °F 14.7 °F 1012.8 in WNW 1.6 mph 1.6 mph 72 % 0.0 in
22:12 19.7 °F 14.7 °F 1012.8 in Calm   1.6 mph 73 % 0.0 in
22:17 19.6 °F 14.8 °F 1012.8 in Calm   1.6 mph 74 % 0.0 in
22:22 19.8 °F 15.2 °F 1012.8 in NNE 3.2 mph 3.2 mph 75 % 0.0 in
22:32 19.8 °F 14.8 °F 1012.8 in Calm   3.2 mph 73 % 0.0 in
22:37 19.6 °F 15.0 °F 1012.8 in Calm   3.2 mph 75 % 0.0 in
22:42 19.6 °F 15.0 °F 1012.4 in Calm   1.6 mph 75 % 0.0 in
22:47 19.6 °F 15.0 °F 1012.4 in Calm   1.6 mph 75 % 0.0 in
22:52 19.3 °F 14.8 °F 1012.4 in Calm   1.6 mph 75 % 0.0 in
22:57 19.2 °F 14.7 °F 1012.1 in Calm   1.6 mph 75 % 0.0 in
23:02 19.2 °F 14.9 °F 1012.1 in Calm   1.6 mph 76 % 0.0 in
23:07 19.1 °F 14.6 °F 1012.1 in Calm   1.6 mph 75 % 0.0 in
23:12 19.1 °F 14.6 °F 1012.1 in Calm   1.6 mph 75 % 0.0 in
23:17 18.9 °F 14.6 °F 1012.1 in Calm   1.6 mph 76 % 0.0 in
23:22 18.5 °F 14.4 °F 1011.7 in Calm   3.2 mph 77 % 0.0 in
23:27 18.5 °F 14.2 °F 1011.7 in Calm   3.2 mph 76 % 0.0 in
23:32 18.4 °F 14.1 °F 1011.7 in Calm   3.2 mph 76 % 0.0 in
23:37 18.5 °F 14.0 °F 1011.7 in Calm   1.6 mph 75 % 0.0 in
23:42 18.5 °F 14.2 °F 1011.7 in Calm   1.6 mph 76 % 0.0 in
23:47 18.6 °F 14.1 °F 1011.7 in Calm   1.6 mph 75 % 0.0 in
23:52 18.7 °F 14.0 °F 1011.7 in WNW 1.6 mph 1.6 mph 74 % 0.0 in
23:57 18.6 °F 14.1 °F 1011.7 in Calm   1.6 mph 75 % 0.0 in
Meteo18
Compliments of Weather Underground - 4 mb

Script developed by  Jim McMurry - jmcmurry@mwt.net Adapted for the template by  Wim van der Kuil - Leuven-Template.eu

You find our weather info also at:

European Weather Network

Weather Underground

Equipment we use:

Weather-station
Davis Vue

Weather-program
Meteobridge

Weather-server
Raspberry PI 2 B+

Provider
1 and 1

Davis Vue

Meteobridge

Raspberry PI 2 B+

1 and 1